createdAt,value
2022-08-04T00:00:00.802Z,22.00
2022-08-04T00:02:58.987Z,22.00
2022-08-04T00:05:27.854Z,22.00
2022-08-04T00:08:13.725Z,21.90
2022-08-04T00:10:42.554Z,21.90
2022-08-04T00:13:10.702Z,21.80
2022-08-04T00:15:37.223Z,21.80
2022-08-04T00:18:05.016Z,21.70
2022-08-04T00:20:33.914Z,21.60
2022-08-04T00:23:01.982Z,21.60
2022-08-04T00:25:28.997Z,21.60
2022-08-04T00:27:55.402Z,21.60
2022-08-04T00:30:21.628Z,21.50
2022-08-04T00:32:48.678Z,21.50
2022-08-04T00:35:16.191Z,21.50
2022-08-04T00:37:45.049Z,21.50
2022-08-04T00:40:23.114Z,21.40
2022-08-04T00:43:00.449Z,21.40
2022-08-04T00:46:16.767Z,21.40
2022-08-04T00:48:46.828Z,21.40
2022-08-04T00:51:12.830Z,21.30
2022-08-04T00:54:20.665Z,21.30
2022-08-04T00:56:52.957Z,21.30
2022-08-04T00:59:48.125Z,21.20
2022-08-04T01:02:52.717Z,21.20
2022-08-04T01:05:37.519Z,21.20
2022-08-04T01:08:46.505Z,21.10
2022-08-04T01:11:12.786Z,21.10
2022-08-04T01:13:53.104Z,21.10
2022-08-04T01:16:24.129Z,21.00
2022-08-04T01:19:00.695Z,21.00
2022-08-04T01:22:13.177Z,21.00
2022-08-04T01:24:45.348Z,21.00
2022-08-04T01:27:41.126Z,20.90
2022-08-04T01:30:08.192Z,20.90
2022-08-04T01:32:47.604Z,20.90
2022-08-04T01:35:46.794Z,20.80
2022-08-04T01:38:29.765Z,20.80
2022-08-04T01:41:12.735Z,20.80
2022-08-04T01:43:44.197Z,20.70
2022-08-04T01:46:13.161Z,20.70
2022-08-04T01:48:41.985Z,20.60
2022-08-04T01:51:09.584Z,20.60
2022-08-04T01:53:39.054Z,20.50
2022-08-04T01:56:08.228Z,20.50
2022-08-04T01:58:36.427Z,20.50
2022-08-04T02:01:06.617Z,20.50
2022-08-04T02:04:21.834Z,20.40
2022-08-04T02:06:45.948Z,20.40
2022-08-04T02:09:20.737Z,20.40
2022-08-04T02:11:59.125Z,20.40
2022-08-04T02:14:41.152Z,20.40
2022-08-04T02:17:19.002Z,20.40
2022-08-04T02:19:52.356Z,20.40
2022-08-04T02:22:24.792Z,20.30
2022-08-04T02:25:09.480Z,20.30
2022-08-04T02:28:09.402Z,20.30
2022-08-04T02:31:10.790Z,20.30
2022-08-04T02:33:40.044Z,20.30
2022-08-04T02:36:10.789Z,20.30
2022-08-04T02:38:54.718Z,20.20
2022-08-04T02:41:22.944Z,20.20
2022-08-04T02:43:51.619Z,20.20
2022-08-04T02:46:20.907Z,20.20
2022-08-04T02:48:50.095Z,20.10
2022-08-04T02:51:28.701Z,20.10
2022-08-04T02:53:58.058Z,20.10
2022-08-04T02:56:26.999Z,20.10
2022-08-04T02:59:03.233Z,20.10
2022-08-04T03:01:30.600Z,20.10
2022-08-04T03:04:12.077Z,20.10
2022-08-04T03:06:43.903Z,20.10
2022-08-04T03:09:47.409Z,20.10
2022-08-04T03:12:28.780Z,20.00
2022-08-04T03:15:29.493Z,19.90
2022-08-04T03:18:26.496Z,19.90
2022-08-04T03:21:13.734Z,19.90
2022-08-04T03:23:39.768Z,19.90
2022-08-04T03:26:08.903Z,19.90
2022-08-04T03:28:46.962Z,19.90
2022-08-04T03:31:57.583Z,19.90
2022-08-04T03:34:42.488Z,19.90
2022-08-04T03:37:20.877Z,19.80
2022-08-04T03:40:10.565Z,19.80
2022-08-04T03:43:00.960Z,19.80
2022-08-04T03:45:55.708Z,19.80
2022-08-04T03:48:41.817Z,19.70
2022-08-04T03:51:48.433Z,19.70
2022-08-04T03:54:51.616Z,19.70
2022-08-04T03:57:48.693Z,19.70
2022-08-04T04:00:21.211Z,19.70
2022-08-04T04:03:28.885Z,19.60
2022-08-04T04:06:16.742Z,19.70
2022-08-04T04:08:58.581Z,19.60
2022-08-04T04:11:34.567Z,19.60
2022-08-04T04:14:56.627Z,19.60
2022-08-04T04:17:53.293Z,19.70
2022-08-04T04:20:42.572Z,19.60
2022-08-04T04:23:22.217Z,19.60
2022-08-04T04:26:06.249Z,19.60
2022-08-04T04:28:52.191Z,19.70
2022-08-04T04:31:42.796Z,19.70
2022-08-04T04:34:14.690Z,19.80
2022-08-04T04:37:08.721Z,19.80
2022-08-04T04:39:37.699Z,19.80
2022-08-04T04:42:12.634Z,19.90
2022-08-04T04:44:51.384Z,19.90
2022-08-04T04:47:43.182Z,19.90
2022-08-04T04:50:58.620Z,20.00
2022-08-04T04:53:33.292Z,20.10
2022-08-04T04:56:21.872Z,20.20
2022-08-04T04:58:52.130Z,20.30
2022-08-04T05:01:59.432Z,20.40
2022-08-04T05:04:34.539Z,20.50
2022-08-04T05:07:38.249Z,20.60
2022-08-04T05:10:40.279Z,20.70
2022-08-04T05:14:37.971Z,20.80
2022-08-04T05:16:56.721Z,20.90
2022-08-04T05:19:36.212Z,21.00
2022-08-04T05:22:12.479Z,21.10
2022-08-04T05:24:44.225Z,21.20
2022-08-04T05:27:27.232Z,21.30
2022-08-04T05:29:58.666Z,21.40
2022-08-04T05:32:30.336Z,21.40
2022-08-04T05:35:03.570Z,21.50
2022-08-04T05:37:31.450Z,21.60
2022-08-04T05:40:00.453Z,21.70
2022-08-04T05:42:27.674Z,21.70
2022-08-04T05:44:55.518Z,21.80
2022-08-04T05:47:21.984Z,21.90
2022-08-04T05:50:01.400Z,22.00
2022-08-04T05:52:30.857Z,22.00
2022-08-04T05:54:59.890Z,22.10
2022-08-04T05:57:26.949Z,22.10
2022-08-04T05:59:56.841Z,22.20
2022-08-04T06:02:23.886Z,22.30
2022-08-04T06:04:51.933Z,22.40
2022-08-04T06:07:18.661Z,22.40
2022-08-04T06:09:44.992Z,22.50
2022-08-04T06:12:18.219Z,22.50
2022-08-04T06:14:47.860Z,22.60
2022-08-04T06:19:57.377Z,22.70
2022-08-04T06:20:18.980Z,22.70
2022-08-04T06:22:52.944Z,22.80
2022-08-04T06:25:22.478Z,22.90
2022-08-04T06:27:50.437Z,23.00
2022-08-04T06:30:18.640Z,23.10
2022-08-04T06:32:48.071Z,23.20
2022-08-04T06:35:19.133Z,23.30
2022-08-04T06:37:46.947Z,23.40
2022-08-04T06:40:31.597Z,23.50
2022-08-04T06:43:01.567Z,23.60
2022-08-04T06:45:28.749Z,23.80
2022-08-04T06:47:56.654Z,24.10
2022-08-04T06:51:25.474Z,24.30
2022-08-04T06:53:10.611Z,24.50
2022-08-04T06:55:37.473Z,24.70
2022-08-04T06:58:05.013Z,24.80
2022-08-04T07:00:33.361Z,24.80
2022-08-04T07:02:59.811Z,24.70
2022-08-04T07:05:26.504Z,24.60
2022-08-04T07:07:56.961Z,24.60
2022-08-04T07:10:27.841Z,24.70
2022-08-04T07:12:59.431Z,24.90
2022-08-04T07:15:26.242Z,25.20
2022-08-04T07:17:53.414Z,25.80
2022-08-04T07:20:30.440Z,26.00
2022-08-04T07:23:06.474Z,26.00
2022-08-04T07:26:00.462Z,26.00
2022-08-04T07:28:29.269Z,26.20
2022-08-04T07:30:57.040Z,26.20
2022-08-04T07:33:24.096Z,26.30
2022-08-04T07:36:10.614Z,26.60
2022-08-04T07:38:50.935Z,26.70
2022-08-04T07:41:39.668Z,26.80
2022-08-04T07:44:07.239Z,26.80
2022-08-04T07:46:33.751Z,26.60
2022-08-04T07:49:00.669Z,26.60
2022-08-04T07:51:27.940Z,26.60
2022-08-04T07:53:56.831Z,26.70
2022-08-04T07:56:23.861Z,27.10
2022-08-04T07:58:50.633Z,27.30
2022-08-04T08:01:18.353Z,27.60
2022-08-04T08:03:45.886Z,28.20
2022-08-04T08:06:30.582Z,28.50
2022-08-04T08:09:00.376Z,28.60
2022-08-04T08:12:35.187Z,29.40
2022-08-04T08:14:15.749Z,30.20
2022-08-04T08:16:42.324Z,30.90
2022-08-04T08:19:08.597Z,31.00
2022-08-04T08:21:58.854Z,31.40
2022-08-04T08:24:23.644Z,32.30
2022-08-04T08:26:49.999Z,33.30
2022-08-04T08:29:16.515Z,34.10
2022-08-04T08:31:57.279Z,34.30
2022-08-04T08:34:30.014Z,34.40
2022-08-04T08:37:09.069Z,34.70
2022-08-04T08:39:41.998Z,35.00
2022-08-04T08:42:33.035Z,35.70
2022-08-04T08:45:34.632Z,36.30
2022-08-04T08:48:07.064Z,37.20
2022-08-04T08:50:48.196Z,37.80
2022-08-04T08:53:44.501Z,38.20
2022-08-04T08:56:51.824Z,38.60
2022-08-04T08:59:36.606Z,38.30
2022-08-04T09:02:34.688Z,37.70
2022-08-04T09:05:19.523Z,37.40
2022-08-04T09:08:25.535Z,37.30
2022-08-04T09:11:02.953Z,37.80
2022-08-04T09:13:47.699Z,38.00
2022-08-04T09:16:38.272Z,37.70
2022-08-04T09:19:22.965Z,38.10
2022-08-04T09:22:17.986Z,38.50
2022-08-04T09:25:07.997Z,38.40
2022-08-04T09:27:48.459Z,38.60
2022-08-04T09:30:17.284Z,39.10
2022-08-04T09:33:17.310Z,39.80
2022-08-04T09:36:04.022Z,40.40
2022-08-04T09:38:40.866Z,41.00
2022-08-04T09:41:48.000Z,41.70
2022-08-04T09:44:51.263Z,42.10
2022-08-04T09:47:40.354Z,42.10
2022-08-04T09:50:20.333Z,40.90
2022-08-04T09:52:56.043Z,39.80
2022-08-04T09:55:54.402Z,39.50
2022-08-04T09:58:46.346Z,39.70
2022-08-04T10:01:23.639Z,39.60
2022-08-04T10:03:59.323Z,39.00
2022-08-04T10:07:00.027Z,38.80
2022-08-04T10:09:26.168Z,38.00
2022-08-04T10:12:08.550Z,36.80
2022-08-04T10:15:02.202Z,35.90
2022-08-04T10:17:53.565Z,35.10
2022-08-04T10:20:47.649Z,34.30
2022-08-04T10:23:55.629Z,33.70
2022-08-04T10:26:46.286Z,33.30
2022-08-04T10:29:17.656Z,32.90
2022-08-04T10:31:49.859Z,32.60
2022-08-04T10:34:25.204Z,32.30
2022-08-04T10:37:00.123Z,31.90
2022-08-04T10:39:44.412Z,31.60
2022-08-04T10:42:29.112Z,31.20
2022-08-04T10:45:11.128Z,30.80
2022-08-04T10:47:54.050Z,30.50
2022-08-04T10:50:23.716Z,30.20
2022-08-04T10:53:02.910Z,30.00
2022-08-04T10:56:06.425Z,29.80
2022-08-04T10:58:47.854Z,29.50
2022-08-04T11:01:50.970Z,29.30
2022-08-04T11:04:30.671Z,29.20
2022-08-04T11:06:59.564Z,29.10
2022-08-04T11:09:27.683Z,29.10
2022-08-04T11:12:09.922Z,29.10
2022-08-04T11:14:46.091Z,29.20
2022-08-04T11:17:37.105Z,29.30
2022-08-04T11:20:33.085Z,29.40
2022-08-04T11:23:05.319Z,29.50
2022-08-04T11:25:54.981Z,29.90
2022-08-04T11:28:38.840Z,30.60
2022-08-04T11:31:07.459Z,32.80
2022-08-04T11:33:52.316Z,34.10
2022-08-04T11:36:25.214Z,35.80
2022-08-04T11:39:12.850Z,37.20
2022-08-04T11:41:53.667Z,38.20
2022-08-04T11:44:32.197Z,38.40
2022-08-04T11:47:08.104Z,38.20
2022-08-04T11:49:56.959Z,38.60
2022-08-04T11:52:26.802Z,38.90
2022-08-04T11:54:55.043Z,38.70
2022-08-04T11:57:25.661Z,38.30
2022-08-04T12:00:09.434Z,37.80
2022-08-04T12:02:59.225Z,38.20
2022-08-04T12:05:40.867Z,38.80
2022-08-04T12:08:32.763Z,39.80
2022-08-04T12:11:34.095Z,40.70
2022-08-04T12:14:25.109Z,41.00
2022-08-04T12:17:01.193Z,40.70
2022-08-04T12:20:03.519Z,40.50
2022-08-04T12:22:36.399Z,40.80
2022-08-04T12:25:08.682Z,41.30
2022-08-04T12:27:41.114Z,42.00
2022-08-04T12:30:58.558Z,42.50
2022-08-04T12:33:12.780Z,42.60
2022-08-04T12:36:21.900Z,42.40
2022-08-04T12:39:15.317Z,42.10
2022-08-04T12:42:13.838Z,42.20
2022-08-04T12:44:44.641Z,42.30
2022-08-04T12:47:26.227Z,42.50
2022-08-04T12:50:03.139Z,42.50
2022-08-04T12:53:05.647Z,42.10
2022-08-04T12:55:34.582Z,41.60
2022-08-04T12:58:03.594Z,41.30
2022-08-04T13:00:40.007Z,41.30
2022-08-04T13:03:15.973Z,41.70
2022-08-04T13:05:44.825Z,41.70
2022-08-04T13:08:14.836Z,41.50
2022-08-04T13:10:44.905Z,40.80
2022-08-04T13:13:25.129Z,40.30
2022-08-04T13:15:59.577Z,40.30
2022-08-04T13:18:30.452Z,40.20
2022-08-04T13:21:20.054Z,40.40
2022-08-04T13:24:10.704Z,40.30
2022-08-04T13:26:42.631Z,40.20
2022-08-04T13:29:58.861Z,39.80
2022-08-04T13:32:17.913Z,39.20
2022-08-04T13:34:49.157Z,38.30
2022-08-04T13:37:24.499Z,37.70
2022-08-04T13:39:55.408Z,37.30
2022-08-04T13:42:25.361Z,37.30
2022-08-04T13:44:56.169Z,37.20
2022-08-04T13:47:33.403Z,36.80
2022-08-04T13:50:14.327Z,36.30
2022-08-04T13:52:42.217Z,35.90
2022-08-04T13:55:18.912Z,35.60
2022-08-04T13:57:46.525Z,35.90
2022-08-04T14:00:16.117Z,36.50
2022-08-04T14:03:23.554Z,36.70
2022-08-04T14:06:14.329Z,36.30
2022-08-04T14:08:49.513Z,35.70
2022-08-04T14:12:06.566Z,35.40
2022-08-04T14:14:30.537Z,35.10
2022-08-04T14:17:19.971Z,34.80
2022-08-04T14:19:49.670Z,34.50
2022-08-04T14:22:28.235Z,34.30
2022-08-04T14:24:57.361Z,34.00
2022-08-04T14:27:24.349Z,33.70
2022-08-04T14:29:50.912Z,33.50
2022-08-04T14:32:21.588Z,33.30
2022-08-04T14:34:50.531Z,33.20
2022-08-04T14:37:22.195Z,33.00
2022-08-04T14:40:17.786Z,32.90
2022-08-04T14:42:55.452Z,32.70
2022-08-04T14:46:02.862Z,32.50
2022-08-04T14:48:29.208Z,32.20
2022-08-04T14:50:55.549Z,32.10
2022-08-04T14:53:28.777Z,32.00
2022-08-04T14:55:57.988Z,32.00
2022-08-04T14:58:34.858Z,32.00
2022-08-04T15:01:11.892Z,31.90
2022-08-04T15:03:50.058Z,31.80
2022-08-04T15:06:23.073Z,31.70
2022-08-04T15:08:50.480Z,31.60
2022-08-04T15:11:23.123Z,31.50
2022-08-04T15:13:53.590Z,31.50
2022-08-04T15:16:25.121Z,31.30
2022-08-04T15:18:52.718Z,31.20
2022-08-04T15:21:22.378Z,31.10
2022-08-04T15:23:50.447Z,31.00
2022-08-04T15:26:23.022Z,30.90
2022-08-04T15:28:54.040Z,31.00
2022-08-04T15:32:07.723Z,31.10
2022-08-04T15:34:09.681Z,31.20
2022-08-04T15:36:44.421Z,31.30
2022-08-04T15:39:48.044Z,31.30
2022-08-04T15:42:32.019Z,31.20
2022-08-04T15:44:58.822Z,31.20
2022-08-04T15:47:25.798Z,31.10
2022-08-04T15:50:28.418Z,31.00
2022-08-04T15:53:01.360Z,30.70
2022-08-04T15:55:38.921Z,30.40
2022-08-04T15:58:10.267Z,30.20
2022-08-04T16:01:05.318Z,30.00
2022-08-04T16:03:58.065Z,29.70
2022-08-04T16:06:23.236Z,29.50
2022-08-04T16:09:00.811Z,29.40
2022-08-04T16:11:32.352Z,29.20
2022-08-04T16:13:58.840Z,29.10
2022-08-04T16:16:37.972Z,29.00
2022-08-04T16:19:06.171Z,29.00
2022-08-04T16:21:34.473Z,28.90
2022-08-04T16:24:15.134Z,28.90
2022-08-04T16:26:45.655Z,28.80
2022-08-04T16:29:34.532Z,28.60
2022-08-04T16:32:11.122Z,28.50
2022-08-04T16:34:56.262Z,28.40
2022-08-04T16:37:28.812Z,28.20
2022-08-04T16:40:23.930Z,28.20
2022-08-04T16:42:50.332Z,28.10
2022-08-04T16:45:17.788Z,27.90
2022-08-04T16:47:46.872Z,27.80
2022-08-04T16:50:13.881Z,27.70
2022-08-04T16:52:51.716Z,27.70
2022-08-04T16:55:19.270Z,27.60
2022-08-04T16:57:58.170Z,27.50
2022-08-04T17:00:33.492Z,27.60
2022-08-04T17:03:04.646Z,27.60
2022-08-04T17:05:39.884Z,27.60
2022-08-04T17:08:29.093Z,27.50
2022-08-04T17:10:54.444Z,27.40
2022-08-04T17:14:01.982Z,27.30
2022-08-04T17:16:13.777Z,27.30
2022-08-04T17:18:50.603Z,27.20
2022-08-04T17:21:20.179Z,27.10
2022-08-04T17:24:14.480Z,27.00
2022-08-04T17:26:40.485Z,26.90
2022-08-04T17:29:09.006Z,26.80
2022-08-04T17:31:37.233Z,26.70
2022-08-04T17:34:15.842Z,26.50
2022-08-04T17:36:43.788Z,26.40
2022-08-04T17:39:22.508Z,26.30
2022-08-04T17:41:55.207Z,26.10
2022-08-04T17:44:33.642Z,26.00
2022-08-04T17:47:12.603Z,25.90
2022-08-04T17:49:44.544Z,25.90
2022-08-04T17:52:41.277Z,25.90
2022-08-04T17:55:07.463Z,25.90
2022-08-04T17:57:42.766Z,26.00
2022-08-04T18:00:19.469Z,25.90
2022-08-04T18:02:53.895Z,25.90
2022-08-04T18:05:54.107Z,25.90
2022-08-04T18:08:37.643Z,25.90
2022-08-04T18:11:01.814Z,25.90
2022-08-04T18:13:28.200Z,25.90
2022-08-04T18:16:14.547Z,25.90
2022-08-04T18:19:11.716Z,25.90
2022-08-04T18:21:46.566Z,25.80
2022-08-04T18:24:34.394Z,25.80
2022-08-04T18:27:03.120Z,25.80
2022-08-04T18:29:33.662Z,25.70
2022-08-04T18:32:06.165Z,25.60
2022-08-04T18:34:35.955Z,25.60
2022-08-04T18:38:02.959Z,25.50
2022-08-04T18:42:40.832Z,25.30
2022-08-04T18:45:09.211Z,25.20
2022-08-04T18:47:35.394Z,25.20
2022-08-04T18:51:11.322Z,25.10
2022-08-04T18:53:07.561Z,25.00
2022-08-04T18:55:57.243Z,24.90
2022-08-04T18:58:27.305Z,24.80
2022-08-04T19:00:55.163Z,24.60
2022-08-04T19:03:23.081Z,24.50
2022-08-04T19:05:50.292Z,24.40
2022-08-04T19:08:33.785Z,24.30
2022-08-04T19:11:35.308Z,24.30
2022-08-04T19:13:54.591Z,24.20
2022-08-04T19:16:27.102Z,24.20
2022-08-04T19:18:55.590Z,24.20
2022-08-04T19:22:00.283Z,24.10
2022-08-04T19:24:32.517Z,24.00
2022-08-04T19:27:02.116Z,24.00
2022-08-04T19:29:38.119Z,23.90
2022-08-04T19:32:14.674Z,23.80
2022-08-04T19:34:46.210Z,23.70
2022-08-04T19:37:56.134Z,23.60
2022-08-04T19:40:00.893Z,23.60
2022-08-04T19:42:27.529Z,23.60
2022-08-04T19:44:54.153Z,23.60
2022-08-04T19:48:16.169Z,23.50
2022-08-04T19:50:10.217Z,23.40
2022-08-04T19:52:37.097Z,23.40
2022-08-04T19:57:52.415Z,23.30
2022-08-04T20:00:34.011Z,23.20
2022-08-04T20:03:01.866Z,23.20
2022-08-04T20:05:52.703Z,23.20
2022-08-04T20:08:16.025Z,23.10
2022-08-04T20:10:51.305Z,23.00
2022-08-04T20:13:19.118Z,22.90
2022-08-04T20:15:57.383Z,22.80
2022-08-04T20:18:36.101Z,22.80
2022-08-04T20:21:18.865Z,22.80
2022-08-04T20:24:36.428Z,22.70
2022-08-04T20:26:48.697Z,22.60
2022-08-04T20:29:20.678Z,22.60
2022-08-04T20:32:05.712Z,22.60
2022-08-04T20:34:35.125Z,22.60
2022-08-04T20:37:01.160Z,22.60
2022-08-04T20:39:27.346Z,22.60
2022-08-04T20:41:53.976Z,22.60
2022-08-04T20:44:24.199Z,22.60
2022-08-04T20:46:50.590Z,22.60
2022-08-04T20:49:17.094Z,22.50
2022-08-04T20:51:43.813Z,22.60
2022-08-04T20:54:16.699Z,22.60
2022-08-04T20:59:36.264Z,22.60
2022-08-04T21:02:05.925Z,22.60
2022-08-04T21:04:48.498Z,22.60
2022-08-04T21:07:16.670Z,22.60
2022-08-04T21:09:50.162Z,22.60
2022-08-04T21:12:27.340Z,22.50
2022-08-04T21:14:57.339Z,22.50
2022-08-04T21:17:58.278Z,22.50
2022-08-04T21:20:13.746Z,22.40
2022-08-04T21:22:40.629Z,22.40
2022-08-04T21:27:55.103Z,22.30
2022-08-04T21:30:26.345Z,22.30
2022-08-04T21:32:53.292Z,22.30
2022-08-04T21:35:22.432Z,22.30
2022-08-04T21:38:03.537Z,22.30
2022-08-04T21:40:37.871Z,22.30
2022-08-04T21:43:05.228Z,22.20
2022-08-04T21:45:36.354Z,22.20
2022-08-04T21:48:04.750Z,22.20
2022-08-04T21:50:31.372Z,22.20
2022-08-04T21:52:57.440Z,22.20
2022-08-04T21:55:25.301Z,22.10
2022-08-04T21:58:11.475Z,22.10
2022-08-04T22:00:39.997Z,22.10
2022-08-04T22:03:06.395Z,22.10
2022-08-04T22:05:44.803Z,22.00
2022-08-04T22:08:19.895Z,21.90
2022-08-04T22:10:49.525Z,21.90
2022-08-04T22:13:22.697Z,21.80
2022-08-04T22:16:05.233Z,21.80
2022-08-04T22:18:31.921Z,21.70
2022-08-04T22:21:03.446Z,21.70
2022-08-04T22:23:30.186Z,21.70
2022-08-04T22:26:20.025Z,21.60
2022-08-04T22:28:53.173Z,21.60
2022-08-04T22:31:23.996Z,21.60
2022-08-04T22:33:54.958Z,21.60
2022-08-04T22:36:21.983Z,21.60
2022-08-04T22:38:57.041Z,21.60
2022-08-04T22:41:34.357Z,21.60
2022-08-04T22:44:16.037Z,21.60
2022-08-04T22:46:42.345Z,21.60
2022-08-04T22:49:08.738Z,21.60
2022-08-04T22:51:35.744Z,21.60
2022-08-04T22:54:02.326Z,21.60
2022-08-04T22:56:39.188Z,21.60
2022-08-04T22:59:11.271Z,21.60
2022-08-04T23:01:58.772Z,21.60
2022-08-04T23:04:24.853Z,21.60
2022-08-04T23:06:53.649Z,21.60
2022-08-04T23:09:21.164Z,21.60
2022-08-04T23:11:53.898Z,21.60
2022-08-04T23:14:28.958Z,21.60
2022-08-04T23:16:55.472Z,21.60
2022-08-04T23:19:21.654Z,21.50
2022-08-04T23:22:00.797Z,21.50
2022-08-04T23:24:29.731Z,21.50
2022-08-04T23:26:56.768Z,21.40
2022-08-04T23:29:22.849Z,21.40
2022-08-04T23:31:59.919Z,21.40
2022-08-04T23:34:27.608Z,21.30
2022-08-04T23:36:55.589Z,21.30
2022-08-04T23:39:21.728Z,21.30
2022-08-04T23:41:53.366Z,21.30
2022-08-04T23:44:25.477Z,21.30
2022-08-04T23:47:00.083Z,21.20
2022-08-04T23:49:44.454Z,21.20
2022-08-04T23:52:28.203Z,21.20
2022-08-04T23:54:59.523Z,21.20
2022-08-04T23:57:30.906Z,21.20
2022-08-04T23:59:58.126Z,21.20
